Time;durP1;ratioP1;P1;durP2;ratioP2;P2;SDS_P1;SDS_P2;PMS_P1;PMS_P2;Temp;Humidity;BMP_temperature;BMP_pressure;BME280_temperature;BME280_humidity;BME280_pressure;Samples;Min_cycle;Max_cycle;Signal;HPM_P1;HPM_P2
2022/03/30 00:00:37;;;;;;;24.47;9.93;;;;;;;11.31;61.74;94063.47;5034186;28;20633;-62
2022/03/30 00:03:04;;;;;;;12.70;9.30;;;;;;;11.30;61.60;94071.25;5033613;28;20182;-61
2022/03/30 00:05:30;;;;;;;20.03;9.90;;;;;;;10.88;63.11;94043.91;5034244;28;20210;-60
2022/03/30 00:07:56;;;;;;;16.57;10.00;;;;;;;11.12;61.84;94052.66;5015855;28;20578;-63
2022/03/30 00:10:22;;;;;;;17.00;9.00;;;;;;;11.22;61.72;94064.34;5034030;28;20297;-62
2022/03/30 00:12:48;;;;;;;24.77;9.67;;;;;;;10.87;62.70;94038.97;5033231;28;20195;-62
2022/03/30 00:15:16;;;;;;;18.47;10.50;;;;;;;11.04;62.25;94058.50;5034310;28;20600;-61
2022/03/30 00:17:42;;;;;;;22.30;10.87;;;;;;;10.75;62.97;94045.22;5033576;28;20229;-62
2022/03/30 00:20:08;;;;;;;18.63;9.67;;;;;;;10.72;63.35;94037.91;5033789;28;20186;-65
2022/03/30 00:22:34;;;;;;;17.77;9.97;;;;;;;10.87;63.11;94042.31;5015719;28;20178;-60
2022/03/30 00:24:59;;;;;;;21.00;9.97;;;;;;;10.84;62.49;94044.34;5033333;28;20201;-63
2022/03/30 00:27:24;;;;;;;15.87;9.47;;;;;;;10.80;63.03;94032.88;5033437;28;20182;-61
2022/03/30 00:29:50;;;;;;;18.57;10.77;;;;;;;10.71;64.04;94026.13;5034097;28;20265;-63
2022/03/30 00:32:15;;;;;;;16.33;8.50;;;;;;;10.76;62.99;94034.94;5015471;28;20680;-60
2022/03/30 00:34:41;;;;;;;18.37;9.17;;;;;;;10.64;64.00;94020.03;5034049;28;20565;-62
2022/03/30 00:37:08;;;;;;;17.70;9.00;;;;;;;10.77;64.57;94018.72;5033470;28;20262;-60
2022/03/30 00:39:34;;;;;;;19.53;9.77;;;;;;;10.96;63.38;94035.56;5033449;28;20229;-62
2022/03/30 00:41:59;;;;;;;15.77;9.60;;;;;;;10.94;62.73;94039.97;5033058;28;20198;-61
2022/03/30 00:44:25;;;;;;;22.63;9.53;;;;;;;10.70;64.53;94009.28;5032017;28;20239;-63
2022/03/30 00:46:50;;;;;;;20.73;9.60;;;;;;;10.90;63.82;94023.44;5033036;28;20283;-63
2022/03/30 00:49:16;;;;;;;21.33;10.17;;;;;;;10.84;63.42;94031.66;5033101;28;20647;-62
2022/03/30 00:51:43;;;;;;;17.63;9.33;;;;;;;10.80;64.17;94020.16;5015213;28;20702;-62
2022/03/30 00:54:08;;;;;;;15.87;9.00;;;;;;;11.03;62.78;94046.72;5032780;28;20240;-63
2022/03/30 00:56:36;;;;;;;14.80;9.43;;;;;;;10.73;63.78;94025.03;5033203;28;20210;-63
2022/03/30 00:59:06;;;;;;;16.47;9.07;;;;;;;10.73;64.09;94030.13;5032739;28;20220;-62
2022/03/30 01:01:34;;;;;;;17.07;9.80;;;;;;;10.87;64.15;94032.13;5032741;28;20207;-62
2022/03/30 01:04:03;;;;;;;19.23;9.70;;;;;;;10.83;63.39;94024.94;5033038;28;20193;-62
2022/03/30 01:06:29;;;;;;;17.53;9.53;;;;;;;10.66;64.88;94003.69;5033005;28;20218;-60
2022/03/30 01:08:55;;;;;;;17.30;8.83;;;;;;;10.85;63.77;94031.47;5032818;28;20182;-62
2022/03/30 01:11:22;;;;;;;19.50;9.57;;;;;;;10.75;63.52;94022.34;5031602;28;20213;-60
2022/03/30 01:13:48;;;;;;;16.87;8.63;;;;;;;10.71;63.96;94015.94;5032936;28;20248;-59
2022/03/30 01:16:14;;;;;;;16.47;9.40;;;;;;;10.57;64.39;93996.13;5032801;28;20194;-62
2022/03/30 01:18:40;;;;;;;18.50;9.90;;;;;;;10.57;65.16;93978.34;5032885;28;20264;-62
2022/03/30 01:21:07;;;;;;;23.33;10.47;;;;;;;10.74;64.29;94005.50;5032085;28;20202;-60
2022/03/30 01:23:33;;;;;;;21.87;9.57;;;;;;;10.42;65.24;93982.34;5014888;28;20637;-62
2022/03/30 01:25:58;;;;;;;13.23;9.37;;;;;;;10.63;64.68;94000.63;5031803;28;20204;-62
2022/03/30 01:28:28;;;;;;;22.27;9.43;;;;;;;10.49;65.50;93980.81;5032593;28;20186;-60
2022/03/30 01:33:43;;;;;;;18.03;10.43;;;;;;;10.58;64.93;93992.66;5032482;28;20245;-60
2022/03/30 01:36:08;;;;;;;18.40;9.43;;;;;;;10.51;65.07;93989.91;5032195;28;20600;-61
2022/03/30 01:38:33;;;;;;;19.77;9.70;;;;;;;10.49;65.03;93985.91;5032067;28;20582;-62
2022/03/30 01:40:59;;;;;;;19.03;9.60;;;;;;;10.40;66.18;93969.00;5032239;28;20226;-62
2022/03/30 01:43:25;;;;;;;18.03;9.97;;;;;;;10.69;65.19;94002.59;5032230;28;20185;-62
2022/03/30 01:45:50;;;;;;;17.63;9.87;;;;;;;10.45;65.66;94005.72;5031028;28;20209;-62
2022/03/30 01:48:16;;;;;;;16.63;9.33;;;;;;;10.53;65.65;94008.34;5030898;28;20174;-64
2022/03/30 01:50:41;;;;;;;18.17;9.63;;;;;;;10.64;65.69;94014.94;5031874;28;20679;-63
2022/03/30 01:53:07;;;;;;;20.67;10.00;;;;;;;10.58;65.21;94011.25;5032139;28;20178;-62
2022/03/30 01:55:32;;;;;;;19.27;9.63;;;;;;;10.54;65.58;94006.59;5014447;28;20206;-60
2022/03/30 01:57:58;;;;;;;22.83;9.20;;;;;;;10.47;65.60;93997.94;5032019;28;20581;-60
2022/03/30 02:00:29;;;;;;;18.40;9.00;;;;;;;10.50;65.73;94002.75;5032279;28;20589;-60
2022/03/30 02:02:55;;;;;;;24.03;9.30;;;;;;;10.33;66.76;93990.84;5032002;28;20189;-62
2022/03/30 02:05:21;;;;;;;19.57;9.63;;;;;;;10.54;66.10;93998.97;5032380;28;20202;-62
2022/03/30 02:07:47;;;;;;;22.03;10.30;;;;;;;10.41;66.61;93989.16;5031979;28;20188;-61
2022/03/30 02:10:13;;;;;;;16.30;9.23;;;;;;;10.49;66.16;94006.22;5032332;28;20257;-60
2022/03/30 02:12:39;;;;;;;19.37;10.20;;;;;;;10.55;66.15;94010.72;5031968;28;20194;-62
2022/03/30 02:15:06;;;;;;;21.67;10.00;;;;;;;10.46;66.79;93991.28;5032426;28;20182;-61
2022/03/30 02:17:32;;;;;;;18.93;9.07;;;;;;;10.69;65.82;94023.72;5038408;23;20238;-62
2022/03/30 02:19:58;;;;;;;17.07;9.87;;;;;;;10.50;65.83;94018.00;5031928;28;20659;-59
2022/03/30 02:22:23;;;;;;;30.63;10.77;;;;;;;10.50;65.83;94015.47;5031972;28;20183;-62
2022/03/30 02:24:50;;;;;;;17.43;9.97;;;;;;;10.37;66.28;94003.09;5032520;28;20188;-62
2022/03/30 02:27:16;;;;;;;23.40;10.13;;;;;;;10.27;67.30;93994.75;5032041;28;20664;-63
2022/03/30 02:29:41;;;;;;;24.67;11.47;;;;;;;10.22;67.88;93994.38;5031814;28;20185;-61
2022/03/30 02:32:07;;;;;;;15.60;9.70;;;;;;;10.39;67.64;94010.56;5031994;28;20210;-62
2022/03/30 02:34:32;;;;;;;19.80;9.93;;;;;;;10.40;67.62;94002.84;5031798;28;20702;-60
2022/03/30 02:36:58;;;;;;;17.73;10.53;;;;;;;10.47;67.12;94018.28;5035030;28;20210;-62
2022/03/30 02:39:23;;;;;;;17.57;9.60;;;;;;;10.63;65.51;94043.84;5036016;28;20292;-63
2022/03/30 02:41:49;;;;;;;15.63;9.57;;;;;;;10.53;66.44;94030.41;5018183;28;20214;-62
2022/03/30 02:44:14;;;;;;;16.50;10.07;;;;;;;10.48;66.93;94017.34;5017779;28;20671;-62
2022/03/30 02:46:40;;;;;;;19.73;10.43;;;;;;;10.53;66.40;94027.88;5017955;28;20256;-62
2022/03/30 02:49:05;;;;;;;17.67;10.03;;;;;;;10.51;67.09;94017.84;5035535;28;20560;-63
2022/03/30 02:51:31;;;;;;;15.90;10.37;;;;;;;10.48;66.59;94030.84;5035386;28;20206;-63
2022/03/30 02:53:57;;;;;;;20.03;9.60;;;;;;;10.48;66.09;94024.97;5035018;28;20193;-61
2022/03/30 02:56:23;;;;;;;19.50;10.47;;;;;;;10.54;66.10;94024.38;5035960;28;20206;-62
2022/03/30 02:58:48;;;;;;;16.03;9.63;;;;;;;10.58;65.55;94040.94;5034831;28;20198;-61
2022/03/30 03:01:14;;;;;;;19.83;10.00;;;;;;;10.42;66.38;94021.28;5034963;28;20202;-64
2022/03/30 03:03:40;;;;;;;20.97;10.20;;;;;;;10.55;65.85;94031.06;5034835;28;20174;-60
2022/03/30 03:06:06;;;;;;;21.47;10.20;;;;;;;10.55;65.77;94036.13;5035053;28;20213;-61
2022/03/30 03:08:32;;;;;;;20.27;10.73;;;;;;;10.35;66.15;94014.34;5035042;28;20257;-60
2022/03/30 03:10:57;;;;;;;21.17;11.63;;;;;;;10.30;67.75;94001.28;5035313;28;20652;-62
2022/03/30 03:13:23;;;;;;;23.63;10.87;;;;;;;10.47;66.72;94018.28;5017004;28;20630;-61
2022/03/30 03:15:49;;;;;;;23.83;11.07;;;;;;;10.39;66.86;94003.75;5034622;28;20217;-61
2022/03/30 03:18:15;;;;;;;19.80;9.97;;;;;;;10.37;67.52;94004.84;5034914;28;20194;-60
2022/03/30 03:20:45;;;;;;;17.50;10.00;;;;;;;10.28;67.53;94003.19;5034451;28;20289;-62
2022/03/30 03:23:12;;;;;;;23.53;10.47;;;;;;;10.22;68.12;93996.13;5034769;28;20170;-61
2022/03/30 03:25:40;;;;;;;19.07;10.17;;;;;;;10.19;68.25;93988.78;5034690;28;20699;-62
2022/03/30 03:28:13;;;;;;;22.47;10.57;;;;;;;10.21;67.70;93989.44;5034572;28;20593;-64
2022/03/30 03:30:40;;;;;;;25.27;10.47;;;;;;;10.18;68.89;93982.13;5034561;28;20293;-59
2022/03/30 03:33:06;;;;;;;16.50;9.97;;;;;;;10.36;68.18;93990.56;5034208;28;20225;-62
2022/03/30 03:35:32;;;;;;;20.10;10.33;;;;;;;10.24;68.92;93981.56;5034445;28;20608;-61
2022/03/30 03:38:00;;;;;;;21.07;10.33;;;;;;;10.26;68.37;93989.81;5034196;28;20224;-64
2022/03/30 03:40:27;;;;;;;18.13;10.97;;;;;;;10.30;67.80;94003.84;5034236;28;20198;-62
2022/03/30 03:42:53;;;;;;;20.77;11.17;;;;;;;10.39;67.76;94005.50;5033958;28;20201;-62
2022/03/30 03:45:19;;;;;;;28.33;11.40;;;;;;;10.14;68.22;93996.84;5033997;28;20198;-63
2022/03/30 03:47:44;;;;;;;22.57;9.80;;;;;;;10.07;69.14;93976.28;5033180;28;20664;-63
2022/03/30 03:50:13;;;;;;;25.70;11.17;;;;;;;10.06;69.18;93984.03;5033983;28;20210;-60
2022/03/30 03:52:38;;;;;;;25.53;12.00;;;;;;;10.06;69.13;93984.81;5033934;28;20193;-62
2022/03/30 03:55:05;;;;;;;17.17;10.43;;;;;;;10.19;68.25;93994.69;5033992;28;20179;-64
2022/03/30 03:57:33;;;;;;;22.80;11.23;;;;;;;10.18;68.46;93992.28;5034274;28;20277;-64
2022/03/30 03:59:59;;;;;;;19.77;10.97;;;;;;;10.03;70.03;93962.28;5015554;28;20187;-62
2022/03/30 04:02:25;;;;;;;19.77;10.90;;;;;;;10.20;68.45;93982.78;5015313;28;20190;-62
2022/03/30 04:04:50;;;;;;;22.60;11.00;;;;;;;10.19;69.01;93981.97;5016451;28;20198;-63
2022/03/30 04:07:16;;;;;;;29.17;12.23;;;;;;;10.04;69.54;93974.03;5016334;28;20217;-63
2022/03/30 04:09:41;;;;;;;39.30;13.53;;;;;;;9.90;70.33;93956.72;5034029;28;20217;-60
2022/03/30 04:12:07;;;;;;;26.87;12.10;;;;;;;9.97;70.18;93978.09;5033918;28;20203;-63
2022/03/30 04:14:33;;;;;;;36.80;13.53;;;;;;;9.93;70.69;93961.53;5033827;28;20236;-62
2022/03/30 04:16:58;;;;;;;30.13;12.20;;;;;;;9.87;70.61;93974.81;5034489;28;20213;-64
2022/03/30 04:19:25;;;;;;;28.03;12.70;;;;;;;9.95;70.40;93982.50;5015501;28;20198;-63
2022/03/30 04:21:51;;;;;;;22.50;9.90;;;;;;;10.06;68.70;94004.34;5015810;28;20213;-62
2022/03/30 04:24:16;;;;;;;16.00;9.67;;;;;;;9.86;69.43;93987.63;5033877;28;20588;-61
2022/03/30 04:26:42;;;;;;;20.87;10.03;;;;;;;10.04;68.98;94001.94;5033482;28;20222;-64
2022/03/30 04:29:07;;;;;;;16.27;10.63;;;;;;;10.20;68.03;94010.72;5033502;28;20182;-61
2022/03/30 04:31:33;;;;;;;20.13;10.77;;;;;;;10.27;68.81;94014.28;5033858;28;20241;-62
2022/03/30 04:33:59;;;;;;;19.73;10.80;;;;;;;10.43;68.09;94022.03;5033282;28;20216;-61
2022/03/30 04:36:25;;;;;;;26.00;11.77;;;;;;;10.37;67.78;94020.88;5033382;28;20210;-63
2022/03/30 04:38:51;;;;;;;28.97;12.03;;;;;;;10.23;68.43;94006.16;5033254;28;20201;-62
2022/03/30 04:41:16;;;;;;;32.00;12.80;;;;;;;10.14;68.87;94005.25;5033445;28;20276;-62
2022/03/30 04:43:42;;;;;;;32.67;14.37;;;;;;;10.17;68.72;93996.56;5032844;28;20186;-63
2022/03/30 04:46:08;;;;;;;38.00;14.83;;;;;;;9.93;69.98;93974.22;5033163;28;20210;-62
2022/03/30 04:48:34;;;;;;;28.60;12.90;;;;;;;9.92;69.90;93979.44;5033513;28;20190;-60
2022/03/30 04:51:00;;;;;;;29.70;12.63;;;;;;;10.00;69.18;93987.94;5016246;28;20229;-65
2022/03/30 04:53:25;;;;;;;23.90;10.90;;;;;;;10.03;68.91;93994.47;5032921;28;20182;-64
2022/03/30 04:55:51;;;;;;;21.03;9.90;;;;;;;9.85;69.11;93978.41;5032915;28;20240;-65
2022/03/30 04:58:16;;;;;;;17.27;10.33;;;;;;;10.01;74.61;93921.00;5032713;28;20252;-65
2022/03/30 05:00:42;;;;;;;17.60;10.87;;;;;;;10.55;73.22;94118.25;5032658;28;20229;-62
2022/03/30 05:03:08;;;;;;;20.27;10.57;;;;;;;10.57;69.12;94128.28;5032625;28;20194;-65
2022/03/30 05:05:33;;;;;;;20.60;10.77;;;;;;;10.46;68.08;94141.19;5014951;28;20217;-61
2022/03/30 05:07:58;;;;;;;27.77;11.30;;;;;;;10.36;69.54;94105.69;5032678;28;20185;-61
2022/03/30 05:10:25;;;;;;;23.00;11.03;;;;;;;10.40;68.32;94119.72;5033020;28;20285;-60
2022/03/30 05:12:52;;;;;;;18.80;10.23;;;;;;;10.19;68.95;94103.09;5032531;28;20178;-62
2022/03/30 05:15:17;;;;;;;25.80;11.00;;;;;;;10.04;69.60;94098.44;5032652;28;20277;-61
2022/03/30 05:17:44;;;;;;;17.70;10.63;;;;;;;9.86;70.51;94074.72;5032524;28;20257;-61
2022/03/30 05:20:13;;;;;;;19.00;10.73;;;;;;;10.11;69.90;94096.19;5040414;23;20251;-62
2022/03/30 05:22:39;;;;;;;18.97;10.77;;;;;;;10.15;70.21;94089.88;5051658;28;20224;-63
2022/03/30 05:25:06;;;;;;;23.60;11.57;;;;;;;10.42;68.95;94109.41;5051003;28;20663;-59
2022/03/30 05:27:32;;;;;;;17.87;11.23;;;;;;;10.35;70.48;94083.75;5050939;28;20675;-63
2022/03/30 05:29:58;;;;;;;26.80;13.00;;;;;;;10.46;69.92;94087.84;5050719;28;20311;-62
2022/03/30 05:32:23;;;;;;;30.90;13.70;;;;;;;10.35;70.58;94065.16;5052331;28;20212;-63
2022/03/30 05:34:48;;;;;;;32.67;15.93;;;;;;;10.31;71.29;94056.22;5052549;28;20236;-62
2022/03/30 05:37:14;;;;;;;34.93;16.60;;;;;;;10.35;71.98;94055.00;5052229;28;20380;-64
2022/03/30 05:39:41;;;;;;;34.80;14.77;;;;;;;10.49;70.24;94085.00;5050843;28;20221;-64
2022/03/30 05:42:11;;;;;;;30.93;16.27;;;;;;;10.61;69.96;94084.66;5051983;28;20201;-61
2022/03/30 05:44:37;;;;;;;33.27;17.00;;;;;;;10.82;69.40;94095.34;5052688;28;20631;-63
2022/03/30 05:47:03;;;;;;;43.77;17.90;;;;;;;10.70;69.64;94088.09;5052315;28;20562;-62
2022/03/30 05:49:28;;;;;;;28.93;15.13;;;;;;;10.76;69.91;94074.78;5051907;28;20268;-61
2022/03/30 05:51:54;;;;;;;32.57;14.97;;;;;;;10.71;69.21;94095.56;5052364;28;20201;-61
2022/03/30 05:54:19;;;;;;;31.97;14.40;;;;;;;10.93;68.33;94104.50;5051748;28;20231;-62
2022/03/30 05:57:00;;;;;;;25.77;13.00;;;;;;;10.83;68.89;94086.78;5050457;28;20235;-63
2022/03/30 05:59:26;;;;;;;31.77;13.13;;;;;;;11.17;67.93;94116.63;5047518;23;20620;-63
2022/03/30 06:01:51;;;;;;;22.93;11.20;;;;;;;11.27;66.49;94137.72;5031131;28;20194;-62
2022/03/30 06:04:17;;;;;;;21.13;11.20;;;;;;;11.20;67.26;94117.13;5032332;28;20190;-62
2022/03/30 06:06:43;;;;;;;37.47;13.67;;;;;;;11.42;65.98;94151.50;5031844;28;20202;-64
2022/03/30 06:09:08;;;;;;;28.67;11.97;;;;;;;11.49;65.27;94155.84;5038512;23;20249;-63
2022/03/30 06:11:34;;;;;;;18.17;10.93;;;;;;;11.50;65.71;94147.28;5034443;28;20692;-63
2022/03/30 06:13:59;;;;;;;24.87;11.00;;;;;;;11.45;67.42;94116.34;5036237;28;20312;-61
2022/03/30 06:16:26;;;;;;;30.60;13.10;;;;;;;11.59;66.89;94118.41;5035557;28;20573;-63
2022/03/30 06:18:52;;;;;;;24.67;11.93;;;;;;;11.67;66.81;94123.56;5035864;28;20672;-64
2022/03/30 06:21:18;;;;;;;23.33;11.80;;;;;;;11.72;67.44;94103.53;5035693;28;20190;-63
2022/03/30 06:23:43;;;;;;;23.83;11.00;;;;;;;11.92;65.73;94142.31;5036109;28;20233;-62
2022/03/30 06:26:09;;;;;;;30.00;12.43;;;;;;;11.67;66.25;94125.31;5035503;28;20194;-62
2022/03/30 06:28:34;;;;;;;25.97;13.37;;;;;;;11.71;65.93;94124.06;5035996;28;20293;-61
2022/03/30 06:31:00;;;;;;;28.27;13.67;;;;;;;11.99;64.73;94152.72;5035439;28;20198;-64
2022/03/30 06:33:26;;;;;;;29.37;15.17;;;;;;;12.05;64.73;94155.47;5035879;28;20224;-62
2022/03/30 06:35:52;;;;;;;31.83;15.60;;;;;;;12.02;65.83;94126.97;5035419;28;20202;-65
2022/03/30 06:38:17;;;;;;;30.47;16.73;;;;;;;12.04;65.51;94143.66;5035273;28;20216;-63
2022/03/30 06:40:47;;;;;;;30.73;16.83;;;;;;;12.02;64.78;94158.28;5035606;28;20273;-65
2022/03/30 06:43:15;;;;;;;32.57;17.67;;;;;;;11.75;65.43;94145.72;5035418;28;20256;-64
2022/03/30 06:45:43;;;;;;;52.57;29.53;;;;;;;12.02;65.56;94144.78;5035190;28;20194;-60
2022/03/30 06:48:09;;;;;;;32.90;18.13;;;;;;;12.13;64.51;94164.91;5035253;28;20198;-64
2022/03/30 06:50:35;;;;;;;40.53;22.80;;;;;;;11.97;65.52;94141.88;5017436;28;20631;-62
2022/03/30 06:53:01;;;;;;;34.90;17.23;;;;;;;11.85;65.16;94160.91;5035462;28;20190;-64
2022/03/30 06:55:26;;;;;;;37.80;17.10;;;;;;;12.02;65.09;94150.66;5035074;28;20390;-60
2022/03/30 06:57:52;;;;;;;35.90;17.07;;;;;;;12.09;64.57;94168.69;5035073;28;20229;-64
2022/03/30 07:00:18;;;;;;;32.63;15.73;;;;;;;12.36;63.86;94182.03;5017037;28;20237;-62
2022/03/30 07:02:44;;;;;;;37.13;16.40;;;;;;;12.41;63.95;94187.50;5032650;28;20214;-65
2022/03/30 07:05:11;;;;;;;36.57;16.03;;;;;;;12.29;64.16;94178.53;5034928;28;20543;-62
2022/03/30 07:10:23;;;;;;;33.70;17.10;;;;;;;12.53;63.21;94193.94;5035120;28;20271;-65
2022/03/30 07:12:51;;;;;;;39.27;17.40;;;;;;;12.67;63.67;94179.78;5017365;28;20186;-62
2022/03/30 07:15:18;;;;;;;30.63;17.23;;;;;;;12.95;62.05;94209.22;5034482;28;20214;-64
2022/03/30 07:17:46;;;;;;;34.30;17.57;;;;;;;13.05;62.55;94188.72;5016910;28;20209;-61
2022/03/30 07:20:14;;;;;;;23.40;15.90;;;;;;;13.01;62.00;94188.19;5034524;28;20205;-64
2022/03/30 07:22:40;;;;;;;31.97;16.67;;;;;;;13.22;61.25;94203.91;5033546;28;20174;-60
2022/03/30 07:25:06;;;;;;;27.53;15.10;;;;;;;13.46;60.17;94229.47;5034465;28;20221;-63
2022/03/30 07:27:31;;;;;;;36.93;15.50;;;;;;;13.39;60.69;94214.97;5034708;28;20190;-62
2022/03/30 07:29:57;;;;;;;28.67;16.30;;;;;;;13.26;60.13;94225.63;5034360;28;20727;-63
2022/03/30 07:32:23;;;;;;;25.67;15.13;;;;;;;13.11;61.24;94191.44;5034339;28;20182;-62
2022/03/30 07:34:49;;;;;;;26.67;13.53;;;;;;;13.32;59.53;94226.75;5034325;28;20206;-63
2022/03/30 07:37:14;;;;;;;31.23;13.70;;;;;;;13.26;59.91;94212.84;5032649;28;20202;-62
2022/03/30 07:39:40;;;;;;;26.23;12.87;;;;;;;13.46;59.58;94228.69;5033357;28;20217;-62
2022/03/30 07:42:06;;;;;;;23.73;12.30;;;;;;;13.38;59.48;94216.69;5016575;28;20205;-62
2022/03/30 07:44:31;;;;;;;25.50;12.00;;;;;;;13.21;61.37;94186.22;5034193;28;20187;-62
2022/03/30 07:46:58;;;;;;;25.47;13.00;;;;;;;13.57;60.00;94225.84;5016402;28;20213;-63
2022/03/30 07:49:24;;;;;;;26.47;12.53;;;;;;;13.67;60.87;94197.56;5034441;28;20182;-64
2022/03/30 07:51:50;;;;;;;31.23;11.77;;;;;;;13.95;58.42;94250.75;5033989;28;20213;-63
2022/03/30 07:54:15;;;;;;;26.27;13.37;;;;;;;14.03;58.62;94239.72;5015949;28;20183;-60
2022/03/30 07:56:41;;;;;;;20.93;11.37;;;;;;;13.99;59.66;94225.66;5034127;28;20209;-61
2022/03/30 07:59:07;;;;;;;21.95;11.57;;;;;;;14.11;59.40;94220.06;5034217;28;20206;-64
2022/03/30 08:01:32;;;;;;;28.42;12.15;;;;;;;14.01;59.74;94205.84;5015754;28;20210;-61
2022/03/30 08:03:58;;;;;;;26.98;12.20;;;;;;;14.41;57.85;94249.28;5033680;28;20190;-62
2022/03/30 08:06:23;;;;;;;25.10;11.90;;;;;;;14.47;56.62;94261.44;5033370;28;20255;-64
2022/03/30 08:08:49;;;;;;;19.33;11.35;;;;;;;14.34;56.64;94255.22;5032860;28;20213;-64
2022/03/30 08:11:14;;;;;;;23.70;13.13;;;;;;;14.33;56.59;94256.97;5015758;28;20190;-61
2022/03/30 08:13:39;;;;;;;25.20;13.03;;;;;;;14.21;55.99;94266.72;5015709;28;20243;-64
2022/03/30 08:16:05;;;;;;;27.93;13.77;;;;;;;14.35;56.85;94251.69;5033262;28;20206;-63
2022/03/30 08:18:31;;;;;;;25.48;12.23;;;;;;;14.43;56.44;94260.16;5033732;28;20735;-60
2022/03/30 08:23:40;;;;;;;28.67;13.77;;;;;;;13.93;57.23;94222.00;5033698;28;20189;-63
2022/03/30 08:26:06;;;;;;;28.48;13.27;;;;;;;13.93;57.41;94216.09;5033109;28;20190;-64
2022/03/30 08:28:31;;;;;;;25.98;12.82;;;;;;;14.25;57.05;94221.97;5015541;28;20271;-64
2022/03/30 08:30:58;;;;;;;23.37;12.60;;;;;;;14.82;55.55;94253.34;5015348;28;20209;-64
2022/03/30 08:33:26;;;;;;;17.30;12.40;;;;;;;15.17;55.32;94261.53;5033198;28;20187;-60
2022/03/30 08:35:53;;;;;;;28.90;12.50;;;;;;;15.61;55.86;94247.22;5033470;28;20199;-64
2022/03/30 08:38:19;;;;;;;22.90;12.68;;;;;;;15.95;53.82;94280.97;5033251;28;20310;-61
2022/03/30 08:40:45;;;;;;;28.10;12.20;;;;;;;15.97;51.05;94317.47;5032839;28;20261;-62
2022/03/30 08:43:10;;;;;;;24.45;13.02;;;;;;;16.01;51.72;94293.09;5032953;28;20547;-61
2022/03/30 08:45:36;;;;;;;39.50;13.55;;;;;;;15.91;51.80;94285.63;5032805;28;20700;-61
2022/03/30 08:48:03;;;;;;;32.67;12.77;;;;;;;15.92;52.40;94251.31;5033089;28;20277;-60
2022/03/30 08:50:28;;;;;;;20.23;11.38;;;;;;;16.59;50.77;94292.47;5032743;28;20202;-63
2022/03/30 08:52:55;;;;;;;21.08;11.65;;;;;;;17.12;48.76;94337.66;5030905;28;20193;-62
2022/03/30 08:55:22;;;;;;;29.10;11.98;;;;;;;17.42;46.43;94372.66;5031558;28;20191;-64
2022/03/30 08:57:48;;;;;;;26.25;12.43;;;;;;;17.63;46.65;94347.06;5032689;28;20190;-63
2022/03/30 09:00:21;;;;;;;22.65;10.45;;;;;;;17.71;45.00;94366.72;5032636;28;20181;-61
2022/03/30 09:02:55;;;;;;;23.80;10.60;;;;;;;17.64;45.84;94322.94;5015032;28;20182;-63
2022/03/30 09:05:22;;;;;;;23.13;11.85;;;;;;;17.47;46.49;94304.31;5014723;28;20198;-63
2022/03/30 09:07:50;;;;;;;24.27;11.50;;;;;;;17.36;47.67;94276.53;5014602;28;20322;-64
2022/03/30 09:10:31;;;;;;;21.38;11.65;;;;;;;17.60;45.82;94329.41;5032527;28;20587;-62
2022/03/30 09:12:57;;;;;;;21.80;11.55;;;;;;;17.52;45.24;94332.91;5014710;28;20566;-62
2022/03/30 09:15:23;;;;;;;24.48;11.27;;;;;;;17.37;46.89;94277.31;5039238;23;20723;-63
2022/03/30 09:17:49;;;;;;;20.42;9.85;;;;;;;17.39;45.65;94313.91;5032183;28;20517;-62
2022/03/30 09:20:19;;;;;;;19.50;10.15;;;;;;;17.83;44.95;94322.38;5032158;28;20269;-63
2022/03/30 09:22:54;;;;;;;20.75;10.32;;;;;;;17.90;44.93;94312.94;5032847;28;20193;-63
2022/03/30 09:25:23;;;;;;;19.50;11.15;;;;;;;17.91;44.21;94318.88;5032194;28;20205;-63
2022/03/30 09:27:51;;;;;;;22.80;11.32;;;;;;;18.20;43.96;94319.56;5031021;28;20217;-64
2022/03/30 09:30:17;;;;;;;25.13;10.50;;;;;;;18.84;43.27;94328.03;5029808;28;20198;-64
2022/03/30 09:32:45;;;;;;;25.10;10.73;;;;;;;18.99;43.44;94322.78;5013595;28;20190;-65
2022/03/30 09:35:19;;;;;;;27.98;11.38;;;;;;;19.22;43.34;94320.75;5031968;28;20174;-63
2022/03/30 09:37:57;;;;;;;24.15;11.60;;;;;;;19.45;43.34;94321.28;5032104;28;20632;-63
2022/03/30 09:40:34;;;;;;;20.63;10.02;;;;;;;19.60;42.24;94346.91;5031888;28;20198;-63
2022/03/30 09:43:15;;;;;;;22.15;10.02;;;;;;;19.58;41.18;94361.78;5032203;28;20293;-64
2022/03/30 09:45:40;;;;;;;23.13;10.48;;;;;;;20.15;40.08;94369.94;5031100;28;20281;-63
2022/03/30 09:48:20;;;;;;;21.70;10.18;;;;;;;20.35;38.95;94396.63;5031884;28;20277;-64
2022/03/30 09:50:54;;;;;;;20.52;9.57;;;;;;;20.31;39.52;94348.97;5031785;28;20713;-62
2022/03/30 09:53:28;;;;;;;19.58;10.13;;;;;;;20.34;38.31;94379.53;5012120;28;20545;-65
2022/03/30 09:56:00;;;;;;;19.67;9.60;;;;;;;20.56;38.08;94370.63;5031881;28;20194;-63
2022/03/30 09:58:34;;;;;;;23.85;9.35;;;;;;;20.84;37.62;94313.63;5031905;28;20699;-64
2022/03/30 10:01:29;;;;;;;19.50;9.27;;;;;;;20.66;36.86;94236.72;5032068;28;20194;-64
2022/03/30 10:04:00;;;;;;;18.92;8.60;;;;;;;20.77;37.39;94204.28;5031972;28;20274;-64
2022/03/30 10:06:31;;;;;;;19.88;9.55;;;;;;;20.84;37.26;94200.72;5032115;28;20202;-64
2022/03/30 10:08:57;;;;;;;26.52;9.43;;;;;;;21.02;36.81;94200.09;5032317;28;20228;-64
2022/03/30 10:11:26;;;;;;;23.90;7.32;;;;;;;21.03;35.74;94201.66;5048537;23;20708;-66
2022/03/30 10:13:55;;;;;;;15.68;7.97;;;;;;;21.09;34.57;94224.09;5031338;28;20861;-61
2022/03/30 10:16:21;;;;;;;16.00;7.68;;;;;;;20.60;35.05;94192.81;5030471;28;20261;-67
2022/03/30 10:18:54;;;;;;;16.85;7.63;;;;;;;20.91;34.77;94180.00;5031721;28;20217;-65
2022/03/30 10:21:46;;;;;;;17.38;8.15;;;;;;;21.15;34.31;94174.16;5031905;28;20289;-65
2022/03/30 10:24:26;;;;;;;21.40;9.27;;;;;;;21.51;33.57;94183.94;5031438;28;20531;-64
2022/03/30 10:27:06;;;;;;;17.27;8.95;;;;;;;21.41;33.87;94171.44;5031469;28;20205;-63
2022/03/30 10:29:33;;;;;;;15.57;7.15;;;;;;;21.39;33.02;94181.22;5031573;28;20704;-64
2022/03/30 10:32:11;;;;;;;14.68;6.20;;;;;;;21.84;31.56;94204.47;5031393;28;20194;-63
2022/03/30 10:34:58;;;;;;;12.52;6.30;;;;;;;21.89;31.51;94148.50;5031209;28;20640;-64
2022/03/30 10:37:28;;;;;;;13.05;7.13;;;;;;;22.31;31.39;94116.66;5030512;28;20182;-64
2022/03/30 10:40:05;;;;;;;14.52;6.63;;;;;;;22.07;30.24;93975.06;5031224;28;20275;-63
2022/03/30 10:42:46;;;;;;;14.50;6.68;;;;;;;22.03;30.73;93960.19;5031550;28;20251;-63
2022/03/30 10:45:40;;;;;;;12.80;6.90;;;;;;;22.34;30.96;93944.47;5032033;28;20179;-62
2022/03/30 10:48:37;;;;;;;12.75;6.53;;;;;;;22.31;30.88;93932.75;5001629;28;20203;-63
2022/03/30 10:51:08;;;;;;;35.50;10.65;;;;;;;22.67;29.78;93950.03;5031842;28;20194;-63
2022/03/30 10:53:35;;;;;;;15.45;7.15;;;;;;;22.49;30.27;93937.09;5030111;28;20691;-64
2022/03/30 10:56:07;;;;;;;16.73;7.10;;;;;;;22.71;29.82;93935.63;5031194;28;20194;-64
2022/03/30 10:58:33;;;;;;;16.25;6.13;;;;;;;22.68;29.40;93935.28;5034714;28;20300;-60
2022/03/30 11:01:12;;;;;;;13.98;6.35;;;;;;;22.52;29.40;93931.47;5033590;28;20206;-64
2022/03/30 11:04:03;;;;;;;18.70;6.07;;;;;;;22.20;29.39;93923.09;5034877;28;20186;-64
2022/03/30 11:06:30;;;;;;;14.68;5.88;;;;;;;22.33;29.62;93911.78;5033599;28;20573;-64
2022/03/30 11:09:08;;;;;;;13.40;6.05;;;;;;;22.34;30.49;93898.63;5033064;28;20190;-60
2022/03/30 11:11:39;;;;;;;14.02;5.65;;;;;;;22.16;29.19;93916.03;5034062;28;20604;-63
2022/03/30 11:14:23;;;;;;;12.65;5.30;;;;;;;21.95;29.39;93903.50;5034870;28;20655;-65
2022/03/30 11:16:51;;;;;;;15.98;6.93;;;;;;;21.37;30.05;93896.13;5034548;28;20198;-63
2022/03/30 11:19:17;;;;;;;13.75;6.18;;;;;;;21.33;30.58;93884.63;5034484;28;20213;-60
2022/03/30 11:21:54;;;;;;;11.18;5.47;;;;;;;21.31;30.68;93881.47;5034596;28;20198;-63
2022/03/30 11:24:22;;;;;;;13.23;6.50;;;;;;;21.51;29.91;93889.06;5034783;28;20210;-65
2022/03/30 11:26:48;;;;;;;14.15;5.63;;;;;;;21.58;29.49;93898.31;5034498;28;20202;-64
2022/03/30 11:29:41;;;;;;;17.67;5.53;;;;;;;20.70;29.12;93893.53;5034295;28;20170;-61